createdAt,value
2018-10-01T00:02:08.054Z,6.10
2018-10-01T00:04:37.177Z,6.10
2018-10-01T00:07:06.214Z,6.10
2018-10-01T00:09:35.160Z,6.10
2018-10-01T00:12:04.182Z,6.10
2018-10-01T00:14:33.272Z,6.00
2018-10-01T00:17:02.532Z,6.00
2018-10-01T00:19:36.676Z,5.90
2018-10-01T00:22:10.997Z,5.90
2018-10-01T00:24:40.063Z,5.80
2018-10-01T00:27:09.170Z,5.80
2018-10-01T00:29:38.157Z,5.70
2018-10-01T00:32:07.210Z,5.80
2018-10-01T00:34:36.333Z,5.80
2018-10-01T00:37:05.766Z,5.80
2018-10-01T00:39:34.823Z,5.70
2018-10-01T00:42:03.926Z,5.70
2018-10-01T00:44:32.965Z,5.60
2018-10-01T00:47:02.005Z,5.60
2018-10-01T00:49:31.018Z,5.60
2018-10-01T00:52:00.079Z,5.60
2018-10-01T00:54:29.060Z,5.50
2018-10-01T00:56:58.058Z,5.50
2018-10-01T00:59:27.019Z,5.50
2018-10-01T01:01:56.032Z,5.50
2018-10-01T01:04:25.063Z,5.50
2018-10-01T01:06:54.037Z,5.60
2018-10-01T01:09:23.084Z,5.70
2018-10-01T01:11:52.148Z,5.70
2018-10-01T01:14:21.143Z,5.80
2018-10-01T01:16:50.137Z,5.80
2018-10-01T01:19:19.236Z,5.90
2018-10-01T01:21:48.211Z,6.00
2018-10-01T01:24:17.390Z,6.00
2018-10-01T01:26:46.320Z,6.00
2018-10-01T01:29:15.505Z,6.00
2018-10-01T01:31:44.577Z,6.10
2018-10-01T01:34:13.624Z,6.10
2018-10-01T01:36:42.715Z,6.10
2018-10-01T01:39:12.248Z,6.20
2018-10-01T01:41:41.290Z,6.20
2018-10-01T01:44:10.286Z,6.20
2018-10-01T01:46:39.321Z,6.20
2018-10-01T01:49:08.340Z,6.20
2018-10-01T01:51:37.338Z,6.20
2018-10-01T01:54:06.448Z,6.20
2018-10-01T01:56:35.461Z,6.30
2018-10-01T01:59:04.547Z,6.30
2018-10-01T02:01:33.519Z,6.30
2018-10-01T02:04:02.708Z,6.40
2018-10-01T02:06:31.831Z,6.40
2018-10-01T02:09:00.850Z,6.40
2018-10-01T02:11:29.957Z,6.50
2018-10-01T02:13:59.825Z,6.50
2018-10-01T02:16:28.771Z,6.60
2018-10-01T02:18:57.811Z,6.60
2018-10-01T02:21:26.871Z,6.70
2018-10-01T02:23:55.861Z,6.70
2018-10-01T02:26:24.813Z,6.80
2018-10-01T02:28:53.849Z,6.80
2018-10-01T02:31:22.868Z,6.80
2018-10-01T02:33:51.906Z,6.90
2018-10-01T02:36:20.916Z,6.90
2018-10-01T02:38:49.970Z,6.90
2018-10-01T02:41:19.039Z,7.00
2018-10-01T02:43:48.061Z,7.00
2018-10-01T02:46:17.121Z,7.00
2018-10-01T02:48:46.097Z,7.00
2018-10-01T02:51:15.140Z,7.10
2018-10-01T02:53:49.329Z,7.10
2018-10-01T02:56:18.425Z,7.10
2018-10-01T02:58:47.470Z,7.10
2018-10-01T03:01:16.514Z,7.10
2018-10-01T03:03:45.581Z,7.10
2018-10-01T03:06:14.736Z,7.10
2018-10-01T03:08:43.785Z,7.10
2018-10-01T03:11:12.775Z,7.10
2018-10-01T03:13:41.751Z,7.10
2018-10-01T03:16:10.755Z,7.10
2018-10-01T03:18:39.793Z,7.10
2018-10-01T03:21:08.908Z,7.00
2018-10-01T03:23:37.899Z,7.00
2018-10-01T03:26:06.976Z,7.00
2018-10-01T03:28:36.019Z,6.90
2018-10-01T03:31:05.132Z,6.90
2018-10-01T03:33:34.137Z,6.90
2018-10-01T03:36:03.126Z,6.90
2018-10-01T03:38:32.256Z,6.90
2018-10-01T03:41:01.382Z,6.90
2018-10-01T03:43:30.370Z,6.90
2018-10-01T03:45:59.336Z,6.80
2018-10-01T03:48:28.330Z,6.80
2018-10-01T03:50:57.353Z,6.80
2018-10-01T03:53:26.373Z,6.70
2018-10-01T03:55:55.349Z,6.70
2018-10-01T03:58:24.533Z,6.70
2018-10-01T04:00:53.594Z,6.70
2018-10-01T04:03:22.733Z,6.80
2018-10-01T04:05:51.784Z,6.80
2018-10-01T04:08:20.848Z,6.90
2018-10-01T04:10:49.876Z,6.90
2018-10-01T04:13:18.894Z,7.00
2018-10-01T04:15:47.957Z,7.00
2018-10-01T04:18:16.970Z,7.10
2018-10-01T04:20:46.000Z,7.10
2018-10-01T04:23:15.064Z,7.20
2018-10-01T04:25:44.045Z,7.20
2018-10-01T04:28:13.951Z,7.30
2018-10-01T04:30:43.015Z,7.40
2018-10-01T04:33:12.034Z,7.50
2018-10-01T04:35:43.388Z,7.50
2018-10-01T04:38:12.373Z,7.60
2018-10-01T04:40:41.484Z,7.70
2018-10-01T04:43:10.495Z,7.70
2018-10-01T04:45:39.834Z,7.70
2018-10-01T04:48:09.207Z,7.80
2018-10-01T04:50:38.358Z,7.90
2018-10-01T04:53:07.409Z,7.90
2018-10-01T04:55:36.519Z,8.00
2018-10-01T04:58:05.627Z,8.10
2018-10-01T05:00:34.658Z,8.10
2018-10-01T05:03:03.733Z,8.20
2018-10-01T05:05:32.753Z,8.20
2018-10-01T05:08:01.796Z,8.30
2018-10-01T05:10:30.791Z,8.30
2018-10-01T05:13:00.064Z,8.40
2018-10-01T05:15:29.602Z,8.40
2018-10-01T05:17:58.944Z,8.40
2018-10-01T05:20:27.996Z,8.40
2018-10-01T05:22:57.707Z,8.40
2018-10-01T05:25:26.935Z,8.40
2018-10-01T05:27:55.975Z,8.40
2018-10-01T05:30:25.726Z,8.40
2018-10-01T05:32:54.826Z,8.40
2018-10-01T05:35:23.896Z,8.40
2018-10-01T05:37:53.120Z,8.40
2018-10-01T05:40:23.306Z,8.40
2018-10-01T05:42:52.767Z,8.50
2018-10-01T05:45:21.975Z,8.50
2018-10-01T05:47:50.958Z,8.50
2018-10-01T05:50:19.970Z,8.50
2018-10-01T05:52:49.094Z,8.60
2018-10-01T05:55:18.174Z,8.60
2018-10-01T05:57:47.361Z,8.60
2018-10-01T06:00:16.526Z,8.60
2018-10-01T06:02:45.811Z,8.60
2018-10-01T06:05:15.026Z,8.60
2018-10-01T06:07:44.312Z,8.70
2018-10-01T06:10:13.405Z,8.80
2018-10-01T06:12:42.444Z,8.90
2018-10-01T06:15:11.566Z,9.00
2018-10-01T06:17:40.543Z,9.10
2018-10-01T06:20:09.668Z,9.20
2018-10-01T06:22:38.730Z,9.20
2018-10-01T06:25:07.706Z,9.30
2018-10-01T06:27:36.659Z,9.30
2018-10-01T06:30:05.741Z,9.40
2018-10-01T06:32:35.171Z,9.50
2018-10-01T06:35:04.559Z,9.50
2018-10-01T06:37:33.775Z,9.50
2018-10-01T06:40:03.979Z,9.50
2018-10-01T06:42:33.180Z,9.50
2018-10-01T06:45:02.213Z,9.50
2018-10-01T06:47:31.212Z,9.50
2018-10-01T06:50:00.260Z,9.50
2018-10-01T06:52:29.329Z,9.60
2018-10-01T06:54:58.363Z,9.60
2018-10-01T06:57:27.459Z,9.70
2018-10-01T06:59:56.533Z,9.70
2018-10-01T07:02:25.872Z,9.80
2018-10-01T07:04:55.611Z,9.90
2018-10-01T07:07:25.882Z,10.00
2018-10-01T07:09:54.947Z,10.10
2018-10-01T07:12:23.968Z,10.20
2018-10-01T07:14:53.044Z,10.30
2018-10-01T07:17:22.178Z,10.40
2018-10-01T07:19:51.274Z,10.50
2018-10-01T07:22:20.489Z,10.60
2018-10-01T07:24:49.510Z,10.70
2018-10-01T07:27:19.697Z,10.90
2018-10-01T07:29:48.762Z,11.20
2018-10-01T07:32:17.826Z,11.40
2018-10-01T07:34:47.234Z,11.60
2018-10-01T07:37:16.235Z,11.70
2018-10-01T07:39:45.281Z,11.90
2018-10-01T07:42:14.348Z,11.90
2018-10-01T07:44:44.379Z,11.90
2018-10-01T07:47:13.438Z,12.10
2018-10-01T07:49:42.431Z,12.20
2018-10-01T07:52:11.434Z,12.30
2018-10-01T07:54:40.457Z,12.50
2018-10-01T07:57:09.562Z,12.50
2018-10-01T07:59:38.722Z,12.30
2018-10-01T08:02:07.925Z,12.40
2018-10-01T08:04:36.926Z,12.50
2018-10-01T08:07:05.959Z,12.60
2018-10-01T08:09:35.039Z,12.80
2018-10-01T08:12:04.103Z,13.10
2018-10-01T08:14:33.349Z,13.30
2018-10-01T08:17:02.345Z,13.60
2018-10-01T08:19:31.291Z,13.80
2018-10-01T08:22:00.342Z,14.00
2018-10-01T08:24:30.283Z,14.30
2018-10-01T08:26:59.298Z,14.40
2018-10-01T08:29:29.003Z,14.50
2018-10-01T08:32:05.597Z,14.60
2018-10-01T08:34:34.680Z,14.70
2018-10-01T08:37:04.493Z,14.70
2018-10-01T08:39:33.525Z,14.70
2018-10-01T08:42:03.311Z,14.60
2018-10-01T08:44:32.923Z,14.70
2018-10-01T08:47:02.293Z,14.50
2018-10-01T08:49:37.500Z,14.90
2018-10-01T08:52:28.542Z,15.60
2018-10-01T08:54:57.599Z,15.80
2018-10-01T08:57:26.609Z,16.30
2018-10-01T08:59:55.667Z,16.70
2018-10-01T09:02:25.429Z,16.10
2018-10-01T09:04:54.486Z,16.30
2018-10-01T09:07:23.760Z,16.90
2018-10-01T09:09:52.862Z,17.10
2018-10-01T09:12:21.996Z,17.70
2018-10-01T09:14:51.020Z,18.00
2018-10-01T09:17:20.043Z,17.90
2018-10-01T09:19:49.047Z,17.80
2018-10-01T09:22:18.034Z,17.60
2018-10-01T09:24:47.197Z,18.00
2018-10-01T09:27:16.256Z,18.00
2018-10-01T09:29:45.264Z,17.70
2018-10-01T09:32:14.507Z,17.10
2018-10-01T09:34:43.377Z,16.00
2018-10-01T09:37:12.423Z,16.00
2018-10-01T09:39:41.497Z,16.50
2018-10-01T09:42:10.554Z,17.30
2018-10-01T09:44:39.668Z,17.80
2018-10-01T09:47:08.715Z,18.20
2018-10-01T09:49:37.755Z,18.10
2018-10-01T09:52:07.013Z,17.40
2018-10-01T09:54:36.088Z,17.20
2018-10-01T09:57:05.175Z,16.60
2018-10-01T09:59:34.155Z,16.10
2018-10-01T10:02:03.233Z,15.80
2018-10-01T10:04:32.328Z,15.70
2018-10-01T10:07:01.241Z,15.70
2018-10-01T10:09:30.275Z,15.80
2018-10-01T10:11:59.342Z,16.10
2018-10-01T10:14:28.417Z,16.50
2018-10-01T10:16:57.395Z,17.00
2018-10-01T10:19:26.451Z,17.10
2018-10-01T10:21:55.511Z,17.70
2018-10-01T10:24:24.640Z,18.60
2018-10-01T10:26:53.650Z,19.50
2018-10-01T10:29:22.654Z,19.80
2018-10-01T10:31:51.803Z,19.10
2018-10-01T10:34:20.775Z,18.40
2018-10-01T10:36:49.806Z,17.60
2018-10-01T10:39:18.825Z,17.60
2018-10-01T10:41:47.866Z,17.80
2018-10-01T10:44:16.883Z,17.70
2018-10-01T10:46:45.779Z,16.90
2018-10-01T10:49:14.798Z,16.90
2018-10-01T10:51:43.895Z,16.70
2018-10-01T10:54:13.234Z,17.30
2018-10-01T10:56:42.295Z,18.30
2018-10-01T10:59:11.447Z,19.00
2018-10-01T11:01:40.477Z,18.50
2018-10-01T11:04:09.482Z,17.40
2018-10-01T11:06:38.491Z,16.80
2018-10-01T11:09:09.211Z,16.40
2018-10-01T11:11:38.568Z,16.20
2018-10-01T11:14:08.091Z,16.40
2018-10-01T11:16:37.048Z,16.60
2018-10-01T11:19:06.408Z,16.70
2018-10-01T11:21:35.834Z,17.60
2018-10-01T11:24:04.902Z,18.30
2018-10-01T11:26:34.012Z,18.50
2018-10-01T11:29:03.043Z,18.40
2018-10-01T11:31:32.117Z,18.70
2018-10-01T11:34:01.120Z,19.00
2018-10-01T11:36:30.122Z,19.20
2018-10-01T11:38:59.174Z,19.10
2018-10-01T11:41:28.237Z,18.70
2018-10-01T11:43:57.717Z,18.00
2018-10-01T11:46:26.772Z,17.70
2018-10-01T11:48:56.762Z,17.40
2018-10-01T11:51:26.165Z,17.60
2018-10-01T11:53:55.165Z,18.50
2018-10-01T11:56:25.092Z,19.20
2018-10-01T11:58:54.837Z,19.30
2018-10-01T12:01:23.833Z,19.70
2018-10-01T12:03:52.890Z,19.50
2018-10-01T12:06:22.670Z,19.30
2018-10-01T12:08:51.756Z,18.90
2018-10-01T12:11:21.272Z,18.60
2018-10-01T12:13:51.115Z,18.30
2018-10-01T12:16:20.855Z,18.00
2018-10-01T12:18:49.890Z,17.10
2018-10-01T12:21:18.978Z,17.30
2018-10-01T12:23:48.563Z,17.70
2018-10-01T12:26:17.548Z,17.60
2018-10-01T12:28:51.046Z,17.40
2018-10-01T12:31:21.091Z,17.40
2018-10-01T12:33:51.037Z,16.50
2018-10-01T12:36:20.247Z,16.10
2018-10-01T12:38:49.882Z,15.70
2018-10-01T12:41:19.473Z,15.20
2018-10-01T12:43:49.549Z,14.90
2018-10-01T12:46:19.352Z,14.60
2018-10-01T12:48:49.306Z,14.30
2018-10-01T12:51:18.468Z,13.80
2018-10-01T12:53:48.039Z,13.70
2018-10-01T12:56:17.183Z,13.60
2018-10-01T12:58:46.876Z,13.80
2018-10-01T13:01:15.978Z,14.00
2018-10-01T13:03:45.034Z,14.20
2018-10-01T13:06:14.151Z,14.40
2018-10-01T13:08:43.218Z,14.60
2018-10-01T13:11:12.248Z,14.70
2018-10-01T13:13:41.382Z,14.30
2018-10-01T13:16:10.389Z,13.50
2018-10-01T13:18:39.504Z,13.20
2018-10-01T13:21:08.554Z,12.90
2018-10-01T13:23:37.703Z,12.40
2018-10-01T13:26:06.829Z,12.10
2018-10-01T13:28:35.910Z,11.90
2018-10-01T13:31:04.957Z,11.80
2018-10-01T13:33:33.986Z,11.50
2018-10-01T13:36:03.100Z,11.70
2018-10-01T13:38:32.129Z,11.80
2018-10-01T13:41:01.288Z,11.80
2018-10-01T13:43:30.311Z,11.80
2018-10-01T13:45:59.369Z,11.70
2018-10-01T13:48:28.584Z,11.70
2018-10-01T13:50:57.655Z,11.70
2018-10-01T13:53:26.696Z,11.60
2018-10-01T13:55:55.877Z,11.50
2018-10-01T13:58:25.017Z,11.50
2018-10-01T14:00:54.344Z,11.50
2018-10-01T14:03:23.378Z,11.50
2018-10-01T14:05:52.443Z,11.60
2018-10-01T14:08:21.574Z,11.50
2018-10-01T14:10:50.659Z,11.60
2018-10-01T14:13:20.076Z,11.60
2018-10-01T14:15:49.052Z,11.80
2018-10-01T14:18:18.193Z,11.90
2018-10-01T14:20:47.304Z,11.90
2018-10-01T14:23:16.329Z,11.90
2018-10-01T14:25:45.337Z,12.10
2018-10-01T14:28:14.415Z,12.20
2018-10-01T14:30:43.412Z,12.50
2018-10-01T14:33:12.489Z,13.30
2018-10-01T14:35:41.628Z,14.10
2018-10-01T14:38:10.709Z,14.30
2018-10-01T14:40:39.908Z,14.10
2018-10-01T14:43:09.067Z,13.70
2018-10-01T14:45:37.968Z,13.20
2018-10-01T14:48:07.029Z,12.90
2018-10-01T14:50:36.243Z,12.60
2018-10-01T14:53:05.389Z,12.50
2018-10-01T14:55:34.494Z,12.70
2018-10-01T14:58:03.546Z,12.90
2018-10-01T15:00:33.018Z,13.00
2018-10-01T15:03:02.146Z,13.10
2018-10-01T15:05:31.623Z,13.10
2018-10-01T15:08:01.739Z,13.10
2018-10-01T15:10:30.731Z,13.00
2018-10-01T15:12:59.837Z,13.00
2018-10-01T15:15:29.040Z,12.90
2018-10-01T15:17:58.785Z,12.70
2018-10-01T15:20:27.958Z,12.40
2018-10-01T15:22:57.815Z,12.40
2018-10-01T15:25:27.631Z,12.30
2018-10-01T15:27:56.659Z,12.30
2018-10-01T15:30:26.176Z,12.20
2018-10-01T15:32:57.550Z,12.00
2018-10-01T15:35:26.807Z,12.00
2018-10-01T15:37:56.063Z,11.90
2018-10-01T15:40:25.813Z,11.90
2018-10-01T15:42:54.861Z,11.90
2018-10-01T15:45:23.887Z,11.90
2018-10-01T15:47:52.865Z,11.90
2018-10-01T15:50:21.833Z,11.90
2018-10-01T15:52:51.028Z,11.80
2018-10-01T15:55:20.026Z,11.80
2018-10-01T15:57:49.068Z,11.80
2018-10-01T16:00:18.078Z,11.80
2018-10-01T16:02:47.721Z,11.70
2018-10-01T16:05:16.873Z,11.60
2018-10-01T16:07:46.545Z,11.50
2018-10-01T16:10:15.544Z,11.50
2018-10-01T16:12:44.566Z,11.40
2018-10-01T16:15:13.649Z,11.40
2018-10-01T16:17:42.700Z,11.30
2018-10-01T16:20:11.826Z,11.30
2018-10-01T16:22:40.801Z,11.20
2018-10-01T16:25:09.545Z,11.10
2018-10-01T16:27:38.653Z,11.00
2018-10-01T16:30:08.486Z,11.00
2018-10-01T16:32:37.743Z,10.90
2018-10-01T16:35:06.845Z,10.80
2018-10-01T16:37:35.977Z,10.80
2018-10-01T16:40:05.040Z,10.70
2018-10-01T16:42:34.195Z,10.70
2018-10-01T16:45:03.368Z,10.60
2018-10-01T16:47:32.436Z,10.50
2018-10-01T16:50:01.534Z,10.40
2018-10-01T16:52:32.691Z,10.40
2018-10-01T16:55:01.867Z,10.30
2018-10-01T16:57:30.929Z,10.30
2018-10-01T17:00:01.826Z,10.20
2018-10-01T17:02:31.036Z,10.20
2018-10-01T17:05:00.050Z,10.30
2018-10-01T17:07:29.175Z,10.30
2018-10-01T17:09:59.739Z,10.20
2018-10-01T17:12:28.733Z,10.20
2018-10-01T17:14:57.782Z,10.10
2018-10-01T17:17:26.807Z,10.10
2018-10-01T17:19:55.815Z,10.00
2018-10-01T17:22:24.818Z,10.00
2018-10-01T17:25:08.776Z,10.00
2018-10-01T17:27:38.237Z,10.00
2018-10-01T17:30:07.945Z,10.00
2018-10-01T17:32:36.955Z,10.00
2018-10-01T17:35:06.047Z,9.90
2018-10-01T17:37:39.202Z,9.80
2018-10-01T17:40:08.335Z,9.80
2018-10-01T17:42:37.445Z,9.70
2018-10-01T17:45:07.628Z,9.70
2018-10-01T17:47:36.899Z,9.60
2018-10-01T17:50:05.968Z,9.60
2018-10-01T17:52:35.048Z,9.50
2018-10-01T17:55:04.248Z,9.50
2018-10-01T17:57:33.354Z,9.50
2018-10-01T18:00:02.679Z,9.40
2018-10-01T18:02:31.654Z,9.40
2018-10-01T18:05:00.735Z,9.30
2018-10-01T18:07:29.950Z,9.30
2018-10-01T18:10:00.726Z,9.20
2018-10-01T18:12:30.129Z,9.20
2018-10-01T18:14:59.376Z,9.20
2018-10-01T18:17:28.442Z,9.20
2018-10-01T18:19:57.497Z,9.20
2018-10-01T18:22:26.557Z,9.10
2018-10-01T18:24:55.690Z,9.10
2018-10-01T18:27:53.335Z,9.00
2018-10-01T18:30:23.083Z,9.00
2018-10-01T18:32:53.529Z,9.00
2018-10-01T18:35:22.705Z,9.00
2018-10-01T18:37:52.257Z,9.00
2018-10-01T18:40:21.609Z,8.90
2018-10-01T18:42:50.929Z,8.90
2018-10-01T18:45:20.116Z,8.80
2018-10-01T18:50:52.190Z,8.70
2018-10-01T18:53:21.344Z,8.70
2018-10-01T18:55:50.784Z,8.70
2018-10-01T18:58:19.984Z,8.60
2018-10-01T19:00:49.079Z,8.60
2018-10-01T19:03:18.336Z,8.60
2018-10-01T19:05:47.342Z,8.50
2018-10-01T19:08:16.362Z,8.50
2018-10-01T19:10:45.502Z,8.50
2018-10-01T19:13:14.542Z,8.50
2018-10-01T19:15:43.735Z,8.50
2018-10-01T19:18:12.976Z,8.50
2018-10-01T19:20:42.058Z,8.50
2018-10-01T19:23:11.115Z,8.50
2018-10-01T19:25:40.491Z,8.50
2018-10-01T19:28:09.667Z,8.50
2018-10-01T19:30:38.728Z,8.50
2018-10-01T19:33:07.792Z,8.40
2018-10-01T19:35:36.847Z,8.30
2018-10-01T19:38:05.824Z,8.30
2018-10-01T19:40:35.103Z,8.20
2018-10-01T19:43:04.111Z,8.10
2018-10-01T19:45:33.099Z,8.10
2018-10-01T19:48:02.275Z,8.10
2018-10-01T19:50:31.384Z,8.00
2018-10-01T19:53:00.484Z,8.00
2018-10-01T19:55:29.563Z,7.90
2018-10-01T19:57:58.602Z,7.90
2018-10-01T20:00:27.702Z,7.90
2018-10-01T20:02:57.034Z,7.90
2018-10-01T20:05:26.269Z,7.90
2018-10-01T20:07:55.359Z,7.90
2018-10-01T20:10:24.384Z,7.90
2018-10-01T20:12:54.457Z,7.80
2018-10-01T20:15:23.573Z,7.80
2018-10-01T20:17:52.522Z,7.80
2018-10-01T20:20:21.563Z,7.80
2018-10-01T20:22:50.659Z,7.80
2018-10-01T20:25:19.756Z,7.80
2018-10-01T20:27:49.017Z,7.80
2018-10-01T20:30:18.019Z,7.70
2018-10-01T20:32:47.015Z,7.70
2018-10-01T20:35:16.153Z,7.70
2018-10-01T20:37:45.264Z,7.60
2018-10-01T20:40:14.276Z,7.60
2018-10-01T20:42:43.273Z,7.50
2018-10-01T20:45:12.267Z,7.50
2018-10-01T20:47:41.262Z,7.50
2018-10-01T20:50:10.284Z,7.50
2018-10-01T20:52:39.366Z,7.40
2018-10-01T20:55:08.847Z,7.40
2018-10-01T20:57:37.782Z,7.40
2018-10-01T21:00:06.939Z,7.40
2018-10-01T21:02:36.095Z,7.40
2018-10-01T21:05:05.355Z,7.40
2018-10-01T21:07:34.316Z,7.40
2018-10-01T21:10:04.309Z,7.40
2018-10-01T21:12:33.368Z,7.40
2018-10-01T21:15:02.578Z,7.30
2018-10-01T21:17:31.652Z,7.30
2018-10-01T21:20:00.720Z,7.30
2018-10-01T21:22:29.854Z,7.30
2018-10-01T21:24:58.846Z,7.30
2018-10-01T21:27:27.806Z,7.30
2018-10-01T21:29:56.747Z,7.30
2018-10-01T21:32:25.715Z,7.30
2018-10-01T21:34:54.731Z,7.30
2018-10-01T21:37:23.932Z,7.30
2018-10-01T21:40:05.498Z,7.30
2018-10-01T21:42:34.496Z,7.20
2018-10-01T21:45:03.907Z,7.20
2018-10-01T21:47:33.806Z,7.10
2018-10-01T21:50:03.162Z,7.10
2018-10-01T21:52:32.258Z,7.10
2018-10-01T21:55:01.254Z,7.00
2018-10-01T21:57:30.325Z,6.90
2018-10-01T21:59:59.369Z,6.90
2018-10-01T22:02:28.387Z,6.90
2018-10-01T22:04:57.323Z,6.80
2018-10-01T22:07:26.318Z,6.80
2018-10-01T22:09:55.467Z,6.70
2018-10-01T22:12:24.440Z,6.70
2018-10-01T22:14:53.439Z,6.70
2018-10-01T22:17:22.405Z,6.60
2018-10-01T22:19:51.371Z,6.60
2018-10-01T22:22:20.447Z,6.50
2018-10-01T22:24:49.523Z,6.50
2018-10-01T22:27:18.495Z,6.40
2018-10-01T22:29:47.528Z,6.40
2018-10-01T22:32:16.793Z,6.30
2018-10-01T22:34:45.787Z,6.30
2018-10-01T22:37:14.856Z,6.30
2018-10-01T22:39:43.886Z,6.20
2018-10-01T22:42:12.955Z,6.20
2018-10-01T22:44:42.008Z,6.20
2018-10-01T22:47:10.985Z,6.20
2018-10-01T22:49:40.101Z,6.20
2018-10-01T22:52:09.021Z,6.20
2018-10-01T22:54:38.071Z,6.20
2018-10-01T22:57:07.104Z,6.20
2018-10-01T22:59:36.068Z,6.20
2018-10-01T23:02:05.271Z,6.20
2018-10-01T23:04:34.860Z,6.20
2018-10-01T23:07:03.901Z,6.20
2018-10-01T23:09:32.866Z,6.20
2018-10-01T23:12:01.949Z,6.20
2018-10-01T23:14:30.975Z,6.20
2018-10-01T23:17:00.066Z,6.20
2018-10-01T23:19:29.079Z,6.10
2018-10-01T23:21:58.032Z,6.20
2018-10-01T23:24:27.036Z,6.20
2018-10-01T23:26:56.050Z,6.20
2018-10-01T23:29:25.166Z,6.20
2018-10-01T23:31:54.758Z,6.20
2018-10-01T23:34:23.862Z,6.20
2018-10-01T23:36:52.959Z,6.20
2018-10-01T23:39:22.020Z,6.20
2018-10-01T23:41:51.033Z,6.20
2018-10-01T23:44:19.982Z,6.20
2018-10-01T23:46:49.088Z,6.20
2018-10-01T23:49:18.081Z,6.20
2018-10-01T23:51:47.123Z,6.20
2018-10-01T23:54:16.086Z,6.10
2018-10-01T23:56:45.149Z,6.20
2018-10-01T23:59:14.264Z,6.10
